Time;durP1;ratioP1;P1;durP2;ratioP2;P2;SDS_P1;SDS_P2;PMS_P1;PMS_P2;Temp;Humidity;BMP_temperature;BMP_pressure;BME280_temperature;BME280_humidity;BME280_pressure;Samples;Min_cycle;Max_cycle;Signal;HPM_P1;HPM_P2
2024/01/08 00:01:39;;;;;;;13.30;8.63;;;;;;;8.32;100.00;63810.91;5070655;28;20659;-54
2024/01/08 00:04:08;;;;;;;17.57;9.33;;;;;;;8.21;100.00;63798.84;5070774;28;20207;-55
2024/01/08 00:06:34;;;;;;;15.80;9.27;;;;;;;8.13;100.00;63787.63;5070582;28;20193;-55
2024/01/08 00:08:59;;;;;;;11.60;7.30;;;;;;;8.12;100.00;63789.03;5070974;28;20237;-52
2024/01/08 00:11:25;;;;;;;12.90;7.57;;;;;;;8.14;100.00;63789.25;5070780;28;20769;-53
2024/01/08 00:13:50;;;;;;;12.73;8.30;;;;;;;8.29;100.00;63805.09;5052898;28;20189;-52
2024/01/08 00:16:16;;;;;;;9.90;6.73;;;;;;;8.24;100.00;63800.16;5071020;28;20187;-56
2024/01/08 00:18:41;;;;;;;10.70;7.03;;;;;;;8.24;100.00;63800.16;5052768;28;20208;-55
2024/01/08 00:21:07;;;;;;;8.90;5.63;;;;;;;8.07;100.00;63784.13;5052606;28;20220;-57
2024/01/08 00:23:34;;;;;;;9.10;5.80;;;;;;;8.12;100.00;63789.56;5070406;28;20232;-53
2024/01/08 00:26:00;;;;;;;9.03;5.83;;;;;;;8.25;100.00;63805.75;5070548;28;20185;-52
2024/01/08 00:28:26;;;;;;;7.90;5.17;;;;;;;8.29;100.00;63805.66;5070413;28;20212;-54
2024/01/08 00:30:52;;;;;;;7.50;5.13;;;;;;;8.50;100.00;63830.00;5070236;28;20668;-54
2024/01/08 00:33:17;;;;;;;9.90;5.27;;;;;;;8.55;100.00;63838.53;5070288;28;20225;-55
2024/01/08 00:35:43;;;;;;;6.63;4.20;;;;;;;8.63;100.00;63844.75;5070248;28;20197;-58
2024/01/08 00:38:09;;;;;;;7.00;4.43;;;;;;;8.79;100.00;63859.72;5070317;28;20228;-55
2024/01/08 00:40:35;;;;;;;7.50;5.07;;;;;;;8.86;100.00;63867.38;5070370;28;20213;-56
2024/01/08 00:43:00;;;;;;;10.00;4.63;;;;;;;8.79;100.00;63859.72;5070456;28;20278;-54
2024/01/08 00:45:26;;;;;;;8.53;4.43;;;;;;;8.56;100.00;63834.59;5070315;28;20181;-54
2024/01/08 00:47:51;;;;;;;6.33;4.30;;;;;;;8.57;100.00;63835.13;5071752;28;20240;-55
2024/01/08 00:50:17;;;;;;;6.87;5.30;;;;;;;8.44;100.00;63824.53;5073728;28;20729;-54
2024/01/08 00:52:43;;;;;;;7.30;4.20;;;;;;;8.51;100.00;63829.13;5073671;28;20595;-54
2024/01/08 00:55:11;;;;;;;6.33;3.77;;;;;;;8.36;100.00;63815.81;5073498;28;20207;-54
2024/01/08 00:57:38;;;;;;;6.20;3.57;;;;;;;8.22;100.00;63797.97;5073388;28;20299;-54
2024/01/08 01:00:04;;;;;;;5.67;3.33;;;;;;;8.21;100.00;63799.41;5052143;28;20212;-55
2024/01/08 01:02:38;;;;;;;7.47;3.50;;;;;;;8.25;100.00;63803.25;5035332;28;20301;-53
2024/01/08 01:05:04;;;;;;;4.47;3.23;;;;;;;8.20;100.00;63800.28;5053259;28;20205;-55
2024/01/08 01:07:31;;;;;;;5.10;2.93;;;;;;;8.10;100.00;63787.38;5035602;28;20220;-54
2024/01/08 01:09:56;;;;;;;6.50;3.50;;;;;;;8.10;100.00;63784.34;5053376;28;20196;-54
2024/01/08 01:12:22;;;;;;;4.70;3.20;;;;;;;7.97;100.00;63773.22;5053307;28;20295;-55
2024/01/08 01:14:47;;;;;;;3.93;3.10;;;;;;;8.10;100.00;63787.38;5035538;28;20272;-54
2024/01/08 01:17:13;;;;;;;5.47;3.63;;;;;;;8.04;100.00;63783.34;5053221;28;20206;-54
2024/01/08 01:19:39;;;;;;;3.90;2.67;;;;;;;7.96;100.00;63772.09;5053303;28;20305;-53
2024/01/08 01:22:05;;;;;;;3.77;2.90;;;;;;;8.00;100.00;63776.47;5035474;28;20224;-53
2024/01/08 01:24:30;;;;;;;5.17;3.00;;;;;;;8.00;100.00;63773.97;5053025;28;20201;-56
2024/01/08 01:26:56;;;;;;;3.10;2.80;;;;;;;7.93;100.00;63765.78;5018712;28;20266;-60
2024/01/08 01:29:21;;;;;;;3.07;2.30;;;;;;;7.92;100.00;63764.69;5035144;28;20273;-54
2024/01/08 01:31:47;;;;;;;3.30;2.60;;;;;;;7.91;100.00;63766.09;5053156;28;20241;-54
2024/01/08 01:34:13;;;;;;;3.73;2.40;;;;;;;7.93;100.00;63765.78;5053008;28;20186;-53
2024/01/08 01:36:40;;;;;;;4.43;2.27;;;;;;;7.64;100.00;63737.19;5052979;28;20197;-56
2024/01/08 01:39:05;;;;;;;5.00;3.00;;;;;;;7.68;100.00;63741.53;5035153;28;20284;-53
2024/01/08 01:41:34;;;;;;;7.07;3.67;;;;;;;7.60;100.00;63730.84;5053012;28;20289;-55
2024/01/08 01:44:00;;;;;;;7.07;4.67;;;;;;;7.87;100.00;63759.22;5053189;28;20185;-53
2024/01/08 01:46:44;;;;;;;5.90;3.30;;;;;;;7.89;100.00;63764.47;5052796;28;20185;-54
2024/01/08 01:49:16;;;;;;;4.80;3.47;;;;;;;7.79;100.00;63751.06;5052782;28;20208;-55
2024/01/08 01:51:44;;;;;;;5.23;3.73;;;;;;;7.63;100.00;63736.63;5053216;28;20768;-54
2024/01/08 01:54:12;;;;;;;4.83;3.90;;;;;;;7.47;100.00;63718.63;5052826;28;20209;-54
2024/01/08 01:56:39;;;;;;;5.73;3.57;;;;;;;7.28;100.00;63695.94;5052618;28;20194;-55
2024/01/08 01:59:06;;;;;;;5.90;5.17;;;;;;;7.29;100.00;63699.00;5034280;28;20186;-55
2024/01/08 02:01:33;;;;;;;6.50;4.23;;;;;;;7.25;100.00;63694.63;5052569;28;20221;-53
2024/01/08 02:04:00;;;;;;;6.53;4.90;;;;;;;7.10;100.00;63681.31;5052818;28;20194;-53
2024/01/08 02:06:27;;;;;;;5.43;4.90;;;;;;;7.14;100.00;63682.63;5034779;28;20198;-58
2024/01/08 02:08:53;;;;;;;9.37;5.77;;;;;;;7.06;100.00;63676.41;5052683;28;20190;-56
2024/01/08 02:11:19;;;;;;;8.67;5.80;;;;;;;7.07;100.00;63678.03;5051667;28;20464;-55
2024/01/08 02:13:45;;;;;;;8.30;5.67;;;;;;;7.07;100.00;63675.53;5034314;28;20205;-59
2024/01/08 02:16:11;;;;;;;8.53;5.97;;;;;;;7.15;100.00;63686.25;5052520;28;20200;-55
2024/01/08 02:18:37;;;;;;;8.97;5.70;;;;;;;7.08;100.00;63676.09;5052248;28;20213;-55
2024/01/08 02:21:02;;;;;;;9.57;5.40;;;;;;;7.06;100.00;63673.91;5034597;28;20640;-56
2024/01/08 02:23:28;;;;;;;7.10;5.30;;;;;;;6.96;100.00;63663.56;5052195;28;20540;-59
2024/01/08 02:25:53;;;;;;;8.50;5.73;;;;;;;6.97;100.00;63664.63;5052288;28;20193;-54
2024/01/08 02:28:19;;;;;;;7.57;4.93;;;;;;;6.84;100.00;63647.41;5052334;28;20209;-55
2024/01/08 02:30:45;;;;;;;5.70;4.50;;;;;;;6.79;100.00;63645.56;5052073;28;20274;-55
2024/01/08 02:33:10;;;;;;;7.20;4.80;;;;;;;6.79;100.00;63645.56;5034393;28;20245;-56
2024/01/08 02:35:36;;;;;;;9.13;5.53;;;;;;;6.82;100.00;63647.72;5052389;28;20703;-55
2024/01/08 02:38:02;;;;;;;5.63;4.33;;;;;;;6.90;100.00;63653.94;5052510;28;20306;-55
2024/01/08 02:40:28;;;;;;;6.23;5.10;;;;;;;6.92;100.00;63658.63;5034281;28;20727;-54
2024/01/08 02:42:54;;;;;;;7.10;5.43;;;;;;;6.90;100.00;63656.47;5051993;28;20220;-56
2024/01/08 02:45:19;;;;;;;4.83;4.33;;;;;;;6.85;100.00;63651.53;5052011;28;20192;-55
2024/01/08 02:47:45;;;;;;;5.43;4.17;;;;;;;6.81;100.00;63647.19;5051945;28;20274;-54
2024/01/08 02:50:10;;;;;;;4.43;3.63;;;;;;;6.81;100.00;63644.69;5051880;28;20190;-58
2024/01/08 02:52:36;;;;;;;6.43;4.60;;;;;;;6.75;100.00;63640.63;5052255;28;20224;-54
2024/01/08 02:55:02;;;;;;;5.40;3.97;;;;;;;6.79;100.00;63645.56;5052167;28;20239;-53
2024/01/08 02:57:29;;;;;;;5.50;4.00;;;;;;;6.84;100.00;63649.91;5052016;28;20210;-54
2024/01/08 02:59:58;;;;;;;4.63;3.87;;;;;;;6.99;100.00;63668.78;5051544;28;20209;-55
2024/01/08 03:02:24;;;;;;;5.37;4.30;;;;;;;7.00;100.00;63667.38;5051560;28;20217;-53
2024/01/08 03:04:50;;;;;;;7.07;4.27;;;;;;;6.94;100.00;63661.38;5051822;28;20616;-55
2024/01/08 03:07:18;;;;;;;5.57;4.03;;;;;;;6.95;100.00;63659.94;5057644;28;20722;-55
2024/01/08 03:09:44;;;;;;;4.43;3.60;;;;;;;6.95;100.00;63661.91;5071420;28;20267;-54
2024/01/08 03:12:12;;;;;;;5.50;2.73;;;;;;;6.80;100.00;63648.59;5071783;28;20239;-54
2024/01/08 03:14:37;;;;;;;3.87;3.07;;;;;;;6.90;100.00;63657.00;5071641;28;20234;-54
2024/01/08 03:17:03;;;;;;;4.60;3.47;;;;;;;6.89;100.00;63655.38;5071377;28;20702;-54
2024/01/08 03:19:28;;;;;;;5.27;2.90;;;;;;;6.96;100.00;63663.00;5071629;28;20264;-54
2024/01/08 03:21:54;;;;;;;4.43;3.27;;;;;;;6.88;100.00;63656.78;5071668;28;20262;-55
2024/01/08 03:24:20;;;;;;;4.50;3.50;;;;;;;6.87;100.00;63653.19;5053462;28;20239;-54
2024/01/08 03:26:45;;;;;;;3.20;2.77;;;;;;;6.89;100.00;63655.38;5071229;28;20291;-53
2024/01/08 03:29:11;;;;;;;4.97;3.77;;;;;;;6.94;100.00;63661.38;5071362;28;20180;-54
2024/01/08 03:31:43;;;;;;;5.87;3.37;;;;;;;6.95;100.00;63661.91;5071308;28;20193;-54
2024/01/08 03:34:09;;;;;;;3.73;2.60;;;;;;;6.87;100.00;63650.69;5078747;23;20216;-54
2024/01/08 03:36:35;;;;;;;3.13;2.83;;;;;;;6.90;100.00;63653.94;5073229;28;20666;-55
2024/01/08 03:39:00;;;;;;;4.63;3.00;;;;;;;6.91;100.00;63657.56;5073053;28;20558;-55
2024/01/08 03:41:26;;;;;;;4.23;3.50;;;;;;;6.79;100.00;63643.06;5091383;28;20211;-55
2024/01/08 03:43:52;;;;;;;4.07;2.90;;;;;;;6.77;100.00;63643.38;5091607;28;20196;-54
2024/01/08 03:46:17;;;;;;;6.30;2.93;;;;;;;6.75;100.00;63638.69;5091315;28;20188;-54
2024/01/08 03:48:43;;;;;;;3.97;3.40;;;;;;;6.78;100.00;63643.94;5091780;28;20674;-54
2024/01/08 03:51:08;;;;;;;4.67;3.47;;;;;;;6.86;100.00;63652.66;5091206;28;20233;-55
2024/01/08 03:53:34;;;;;;;5.40;3.70;;;;;;;6.74;100.00;63637.59;5091217;28;20203;-53
2024/01/08 03:56:00;;;;;;;4.80;3.73;;;;;;;6.70;100.00;63635.75;5073345;28;20259;-54
2024/01/08 03:58:25;;;;;;;5.80;3.57;;;;;;;6.67;100.00;63634.97;5091138;28;20207;-63
2024/01/08 04:00:53;;;;;;;4.20;3.03;;;;;;;6.62;100.00;63627.03;5073116;28;20250;-53
2024/01/08 04:03:19;;;;;;;5.50;3.50;;;;;;;6.60;100.00;63624.84;5072927;28;20603;-53
2024/01/08 04:05:45;;;;;;;5.77;4.17;;;;;;;6.57;100.00;63621.56;5090901;28;20187;-53
2024/01/08 04:08:10;;;;;;;5.33;3.90;;;;;;;6.60;100.00;63621.78;5073143;28;20207;-53
2024/01/08 04:10:36;;;;;;;4.40;4.00;;;;;;;6.51;100.00;63611.97;5091135;28;20252;-54
2024/01/08 04:13:02;;;;;;;5.20;3.90;;;;;;;6.63;100.00;63628.09;5091102;28;20310;-56
2024/01/08 04:15:27;;;;;;;5.47;4.17;;;;;;;6.58;100.00;63622.13;5091057;28;20195;-54
2024/01/08 04:17:53;;;;;;;5.40;4.43;;;;;;;6.64;100.00;63629.22;5072756;28;20311;-54
2024/01/08 04:20:18;;;;;;;5.87;4.20;;;;;;;6.56;100.00;63619.94;5090871;28;20204;-58
2024/01/08 04:22:45;;;;;;;4.53;4.13;;;;;;;6.63;100.00;63628.09;5092518;28;20216;-58
2024/01/08 04:25:11;;;;;;;5.53;4.10;;;;;;;6.59;100.00;63620.69;5094475;28;20665;-54
2024/01/08 04:27:37;;;;;;;5.70;4.30;;;;;;;6.57;100.00;63621.03;5094539;28;20242;-54
2024/01/08 04:30:03;;;;;;;4.67;4.10;;;;;;;6.56;100.00;63617.44;5059751;28;20652;-56
2024/01/08 04:32:28;;;;;;;7.70;4.80;;;;;;;6.59;100.00;63623.75;5076184;28;20207;-55
2024/01/08 04:34:54;;;;;;;6.33;4.80;;;;;;;6.52;100.00;63618.09;5094331;28;20202;-56
2024/01/08 04:37:19;;;;;;;7.17;5.00;;;;;;;6.59;100.00;63625.69;5094193;28;20382;-55
2024/01/08 04:39:45;;;;;;;7.97;5.33;;;;;;;6.51;100.00;63612.53;5076077;28;20207;-56
2024/01/08 04:42:11;;;;;;;5.70;4.43;;;;;;;7.18;100.00;63684.50;5059416;28;20673;-58
2024/01/08 04:44:37;;;;;;;7.57;5.30;;;;;;;6.85;100.00;63653.53;5094165;28;20196;-54
2024/01/08 04:47:03;;;;;;;5.40;4.00;;;;;;;6.57;100.00;63618.50;5094280;28;20297;-54
2024/01/08 04:49:28;;;;;;;4.57;3.00;;;;;;;6.41;100.00;63603.56;5094114;28;20193;-54
2024/01/08 04:51:54;;;;;;;3.83;2.63;;;;;;;6.32;100.00;63594.31;5076281;28;20199;-55
2024/01/08 04:54:19;;;;;;;3.37;2.37;;;;;;;6.11;100.00;63573.38;5094113;28;20643;-55
2024/01/08 04:56:56;;;;;;;2.40;2.20;;;;;;;6.21;100.00;63584.84;5093736;28;20208;-55
2024/01/08 04:59:23;;;;;;;2.17;1.70;;;;;;;6.08;100.00;63565.66;5093983;28;20183;-56
2024/01/08 05:01:50;;;;;;;1.77;1.60;;;;;;;6.03;100.00;63559.69;5075642;28;20211;-56
2024/01/08 05:04:16;;;;;;;1.43;1.33;;;;;;;5.91;100.00;63550.19;5058947;28;20244;-56
2024/01/08 05:06:42;;;;;;;2.20;1.43;;;;;;;5.84;100.00;63542.56;5075675;28;20242;-55
2024/01/08 05:09:11;;;;;;;1.93;1.67;;;;;;;5.76;100.00;63533.84;5093703;28;20199;-54
2024/01/08 05:11:37;;;;;;;1.70;1.30;;;;;;;5.75;100.00;63535.25;5075638;28;20244;-54
2024/01/08 05:14:06;;;;;;;1.53;1.33;;;;;;;5.71;100.00;63525.34;5094170;28;20686;-54
2024/01/08 05:16:32;;;;;;;1.70;1.37;;;;;;;5.55;100.00;63510.44;5093702;28;20195;-56
2024/01/08 05:18:58;;;;;;;1.33;1.00;;;;;;;5.52;100.00;63504.66;5075767;28;20334;-56
2024/01/08 05:21:23;;;;;;;1.30;1.13;;;;;;;5.43;100.00;63497.34;5093570;28;20306;-54
2024/01/08 05:23:49;;;;;;;2.03;1.50;;;;;;;5.35;100.00;63488.66;5093422;28;20311;-55
2024/01/08 05:26:15;;;;;;;2.27;1.30;;;;;;;5.32;100.00;63482.88;5093522;28;20277;-55
2024/01/08 05:28:40;;;;;;;1.30;1.20;;;;;;;5.35;100.00;63489.19;5075440;28;20647;-58
2024/01/08 05:31:06;;;;;;;1.37;1.10;;;;;;;5.23;100.00;63473.09;5092981;28;20268;-56
2024/01/08 05:33:31;;;;;;;1.47;1.33;;;;;;;5.17;100.00;63469.59;5092803;28;20220;-59
2024/01/08 05:35:57;;;;;;;1.40;1.30;;;;;;;5.16;100.00;63471.00;5093117;28;20204;-56
2024/01/08 05:38:24;;;;;;;1.50;1.40;;;;;;;5.23;100.00;63476.13;5075145;28;20224;-55
2024/01/08 05:40:50;;;;;;;1.87;1.50;;;;;;;5.10;100.00;63461.97;5075126;28;20230;-55
2024/01/08 05:43:16;;;;;;;1.70;1.60;;;;;;;5.09;100.00;63460.88;5093471;28;20633;-59
2024/01/08 05:45:41;;;;;;;1.77;1.37;;;;;;;5.10;100.00;63462.53;5093243;28;20199;-56
2024/01/08 05:48:07;;;;;;;3.13;2.20;;;;;;;4.98;100.00;63451.97;5075279;28;20216;-55
2024/01/08 05:50:33;;;;;;;1.87;1.73;;;;;;;5.06;100.00;63457.63;5075276;28;20291;-54
2024/01/08 05:53:00;;;;;;;2.00;1.70;;;;;;;4.96;100.00;63447.28;5093281;28;20632;-53
2024/01/08 05:55:26;;;;;;;1.87;1.50;;;;;;;4.89;100.00;63442.16;5093141;28;20274;-53
2024/01/08 05:57:52;;;;;;;2.13;1.93;;;;;;;4.78;100.00;63429.66;5075069;28;20239;-53
2024/01/08 06:00:18;;;;;;;1.60;1.40;;;;;;;4.73;100.00;63422.25;5092999;28;20214;-53
2024/01/08 06:02:44;;;;;;;1.40;1.30;;;;;;;4.62;100.00;63410.28;5093117;28;20218;-53
2024/01/08 06:05:11;;;;;;;1.77;1.67;;;;;;;4.60;100.00;63403.13;5093316;28;20573;-58
2024/01/08 06:07:37;;;;;;;2.37;1.70;;;;;;;4.56;100.00;63406.25;5074824;28;20759;-53
2024/01/08 06:10:03;;;;;;;2.63;2.10;;;;;;;4.43;100.00;63389.63;5092878;28;20183;-54
2024/01/08 06:12:29;;;;;;;1.80;1.70;;;;;;;4.63;100.00;63415.81;5092832;28;20216;-53
2024/01/08 06:14:55;;;;;;;2.40;1.90;;;;;;;4.47;100.00;63393.97;5092978;28;20577;-55
2024/01/08 06:17:21;;;;;;;2.10;1.60;;;;;;;4.48;100.00;63395.06;5092844;28;20250;-55
2024/01/08 06:19:48;;;;;;;2.47;1.90;;;;;;;4.43;100.00;63392.13;5092621;28;20223;-55
2024/01/08 06:22:14;;;;;;;2.30;1.90;;;;;;;4.54;100.00;63401.59;5092734;28;20640;-56
2024/01/08 06:24:40;;;;;;;1.73;1.63;;;;;;;4.56;100.00;63405.72;5092561;28;20194;-55
2024/01/08 06:27:06;;;;;;;1.90;1.80;;;;;;;4.40;100.00;63386.38;5074279;28;20273;-57
2024/01/08 06:29:32;;;;;;;2.53;1.97;;;;;;;4.34;100.00;63379.84;5091520;28;20188;-56
2024/01/08 06:31:59;;;;;;;2.70;2.37;;;;;;;4.33;100.00;63378.19;5091515;28;20217;-56
2024/01/08 06:34:25;;;;;;;2.73;2.50;;;;;;;4.23;100.00;63368.41;5092646;28;20244;-55
2024/01/08 06:36:50;;;;;;;2.17;1.97;;;;;;;4.23;100.00;63367.88;5074325;28;20640;-56
2024/01/08 06:39:16;;;;;;;3.17;2.20;;;;;;;4.32;100.00;63377.66;5092590;28;20205;-55
2024/01/08 06:41:42;;;;;;;3.00;2.47;;;;;;;4.36;100.00;63382.03;5092322;28;20295;-57
2024/01/08 06:44:08;;;;;;;2.07;1.87;;;;;;;4.32;100.00;63377.13;5092359;28;20192;-53
2024/01/08 06:46:33;;;;;;;2.97;2.43;;;;;;;4.32;100.00;63380.16;5091699;28;20192;-54
2024/01/08 06:48:59;;;;;;;2.27;2.00;;;;;;;4.25;100.00;63370.03;5074146;28;20233;-54
2024/01/08 06:51:27;;;;;;;1.93;1.80;;;;;;;4.17;100.00;63361.91;5092330;28;20202;-52
2024/01/08 06:53:52;;;;;;;2.33;1.87;;;;;;;4.18;100.00;63362.44;5092136;28;20195;-54
2024/01/08 06:56:18;;;;;;;2.63;1.83;;;;;;;4.03;100.00;63346.13;5092276;28;20272;-53
2024/01/08 06:58:45;;;;;;;1.93;1.83;;;;;;;4.01;100.00;63341.47;5057358;28;20275;-53
2024/01/08 07:01:10;;;;;;;2.17;1.73;;;;;;;3.92;100.00;63334.72;5092160;28;20203;-53
2024/01/08 07:03:36;;;;;;;2.63;2.13;;;;;;;3.84;100.00;63325.47;5091914;28;20225;-55
2024/01/08 07:06:02;;;;;;;1.87;1.70;;;;;;;3.89;100.00;63331.47;5091892;28;20194;-56
2024/01/08 07:08:28;;;;;;;2.90;2.53;;;;;;;3.81;100.00;63322.22;5091801;28;20216;-56
2024/01/08 07:10:53;;;;;;;2.17;1.97;;;;;;;3.90;100.00;63332.53;5091923;28;20189;-55
2024/01/08 07:13:19;;;;;;;3.77;2.47;;;;;;;4.02;100.00;63345.06;5074139;28;20650;-56
2024/01/08 07:15:48;;;;;;;2.87;2.07;;;;;;;3.93;100.00;63337.75;5091927;28;20689;-56
2024/01/08 07:18:15;;;;;;;3.97;2.90;;;;;;;4.06;100.00;63349.94;5092129;28;20697;-56
2024/01/08 07:20:41;;;;;;;2.60;1.90;;;;;;;4.09;100.00;63355.69;5091605;28;20211;-56
2024/01/08 07:23:11;;;;;;;3.43;2.23;;;;;;;4.07;100.00;63350.47;5091644;28;20243;-55
2024/01/08 07:25:37;;;;;;;3.33;2.10;;;;;;;3.95;100.00;63334.94;5073545;28;20213;-56
2024/01/08 07:28:07;;;;;;;2.50;2.30;;;;;;;4.01;100.00;63343.94;5091907;28;20220;-55
2024/01/08 07:30:33;;;;;;;2.20;2.00;;;;;;;3.93;100.00;63335.25;5073372;28;20683;-56
2024/01/08 07:32:59;;;;;;;1.97;1.77;;;;;;;3.95;100.00;63337.44;5091849;28;20272;-59
2024/01/08 07:35:25;;;;;;;2.33;1.90;;;;;;;3.77;100.00;63318.41;5091515;28;20184;-54
2024/01/08 07:37:55;;;;;;;1.87;1.70;;;;;;;3.76;100.00;63316.78;5091338;28;20218;-53
2024/01/08 07:40:26;;;;;;;2.30;2.10;;;;;;;3.76;100.00;63316.78;5091363;28;20214;-55
2024/01/08 07:42:53;;;;;;;2.70;1.83;;;;;;;3.59;100.00;63296.38;5091392;28;20742;-54
2024/01/08 07:45:19;;;;;;;1.93;1.70;;;;;;;3.66;100.00;63303.97;5091324;28;20195;-52
2024/01/08 07:47:44;;;;;;;2.47;2.10;;;;;;;3.58;100.00;63297.75;5091557;28;20596;-56
2024/01/08 07:50:10;;;;;;;3.27;1.80;;;;;;;3.67;100.00;63307.53;5091423;28;20199;-55
2024/01/08 07:52:36;;;;;;;2.40;2.13;;;;;;;3.66;100.00;63308.94;5073441;28;20207;-57
2024/01/08 07:55:06;;;;;;;4.27;2.60;;;;;;;3.59;100.00;63298.31;5091337;28;20190;-56
2024/01/08 07:57:31;;;;;;;3.07;2.33;;;;;;;3.58;100.00;63297.22;5090193;28;20282;-57
2024/01/08 07:59:57;;;;;;;3.03;2.33;;;;;;;3.58;100.00;63300.25;5091000;28;20695;-58
2024/01/08 08:02:23;;;;;;;4.60;2.13;;;;;;;3.65;100.00;63304.81;5091305;28;20218;-55
2024/01/08 08:04:50;;;;;;;3.77;2.47;;;;;;;3.51;100.00;63292.09;5091125;28;20624;-55
2024/01/08 08:07:16;;;;;;;2.77;2.17;;;;;;;3.55;100.00;63294.50;5091032;28;20227;-53
2024/01/08 08:09:41;;;;;;;4.17;2.23;;;;;;;3.61;100.00;63302.97;5091079;28;20650;-53
2024/01/08 08:12:07;;;;;;;5.53;2.77;;;;;;;3.48;100.00;63289.38;5090909;28;20257;-53
2024/01/08 08:14:32;;;;;;;3.60;2.80;;;;;;;3.54;100.00;63295.91;5072884;28;20189;-54
2024/01/08 08:16:58;;;;;;;2.40;2.13;;;;;;;3.56;100.00;63297.53;5090778;28;20654;-53
2024/01/08 08:19:23;;;;;;;2.80;2.00;;;;;;;3.54;100.00;63292.88;5073030;28;20235;-53
2024/01/08 08:21:49;;;;;;;3.57;2.47;;;;;;;3.49;100.00;63288.00;5090745;28;20239;-54
2024/01/08 08:24:14;;;;;;;5.53;2.80;;;;;;;3.55;100.00;63291.47;5090856;28;20226;-53
2024/01/08 08:26:40;;;;;;;2.83;1.97;;;;;;;3.45;100.00;63286.13;5090728;28;20199;-51
2024/01/08 08:29:05;;;;;;;1.93;1.83;;;;;;;3.38;100.00;63276.03;5090608;28;20227;-53
2024/01/08 08:31:31;;;;;;;4.30;2.30;;;;;;;3.43;100.00;63282.00;5090542;28;20193;-53
2024/01/08 08:33:57;;;;;;;3.87;2.57;;;;;;;3.53;100.00;63291.78;5072742;28;20199;-54
2024/01/08 08:36:22;;;;;;;2.80;2.47;;;;;;;3.42;100.00;63280.91;5090884;28;20683;-57
2024/01/08 08:38:48;;;;;;;2.83;2.03;;;;;;;3.46;100.00;63284.72;5090751;28;20707;-54
2024/01/08 08:41:13;;;;;;;2.93;1.90;;;;;;;3.47;100.00;63283.31;5072429;28;20601;-52
2024/01/08 08:43:39;;;;;;;2.77;2.40;;;;;;;3.49;100.00;63287.44;5090805;28;20348;-55
2024/01/08 08:46:05;;;;;;;3.23;2.40;;;;;;;3.41;100.00;63277.34;5090565;28;20277;-56
2024/01/08 08:48:30;;;;;;;1.90;1.67;;;;;;;3.36;100.00;63271.38;5090576;28;20297;-55
2024/01/08 08:50:57;;;;;;;2.60;1.87;;;;;;;3.51;100.00;63292.09;5072476;28;20197;-56
2024/01/08 08:53:22;;;;;;;3.03;1.83;;;;;;;3.35;100.00;63275.78;5090507;28;20235;-55
2024/01/08 08:55:48;;;;;;;3.20;2.30;;;;;;;3.52;100.00;63293.72;5090590;28;20246;-56
2024/01/08 08:58:14;;;;;;;2.13;1.83;;;;;;;3.40;100.00;63278.19;5090726;28;20293;-60
2024/01/08 09:00:40;;;;;;;3.27;2.43;;;;;;;3.41;100.00;63277.34;5090320;28;20223;-54
2024/01/08 09:03:06;;;;;;;1.83;1.47;;;;;;;3.27;100.00;63264.63;5090268;28;20244;-55
2024/01/08 09:05:32;;;;;;;2.53;2.00;;;;;;;3.35;100.00;63275.25;5090410;28;20178;-55
2024/01/08 09:07:58;;;;;;;2.23;2.00;;;;;;;3.20;100.00;63257.03;5090533;28;20258;-55
2024/01/08 09:10:24;;;;;;;2.63;2.10;;;;;;;3.30;100.00;63267.34;5094009;28;20188;-54
2024/01/08 09:12:49;;;;;;;2.13;1.73;;;;;;;3.24;100.00;63260.81;5093662;28;20252;-54
2024/01/08 09:15:15;;;;;;;1.60;1.50;;;;;;;3.24;100.00;63261.38;5075543;28;20193;-55
2024/01/08 09:17:40;;;;;;;2.23;2.00;;;;;;;3.23;100.00;63260.28;5093747;28;20212;-54
2024/01/08 09:20:09;;;;;;;2.90;1.67;;;;;;;3.33;100.00;63273.63;5093534;28;20208;-54
2024/01/08 09:22:35;;;;;;;2.43;2.23;;;;;;;3.24;100.00;63261.38;5075404;28;20235;-54
2024/01/08 09:25:01;;;;;;;2.37;2.13;;;;;;;3.21;100.00;63260.06;5093528;28;20657;-53
2024/01/08 09:27:28;;;;;;;2.10;1.90;;;;;;;3.23;100.00;63262.22;5093508;28;20219;-54
2024/01/08 09:29:53;;;;;;;1.83;1.73;;;;;;;3.29;100.00;63266.78;5093472;28;20254;-54
2024/01/08 09:32:19;;;;;;;2.87;1.87;;;;;;;3.34;100.00;63274.16;5093453;28;20209;-54
2024/01/08 09:34:44;;;;;;;2.93;1.77;;;;;;;3.38;100.00;63278.50;5093480;28;20188;-55
2024/01/08 09:37:10;;;;;;;2.77;1.93;;;;;;;3.35;100.00;63273.31;5093319;28;20223;-55
2024/01/08 09:39:36;;;;;;;2.70;1.97;;;;;;;3.26;100.00;63263.53;5075496;28;20192;-54
2024/01/08 09:42:05;;;;;;;1.70;1.60;;;;;;;3.18;100.00;63251.81;5075131;28;20648;-53
2024/01/08 09:44:40;;;;;;;3.13;1.93;;;;;;;3.04;100.00;63239.66;5093377;28;20215;-53
2024/01/08 09:47:06;;;;;;;2.10;1.50;;;;;;;3.22;100.00;63261.69;5093227;28;20216;-53
2024/01/08 09:49:32;;;;;;;1.47;1.37;;;;;;;3.20;100.00;63259.50;5093206;28;20571;-53
2024/01/08 09:52:01;;;;;;;2.47;1.60;;;;;;;3.24;100.00;63263.84;5058223;28;20312;-53
2024/01/08 09:54:29;;;;;;;2.43;2.00;;;;;;;3.32;100.00;63269.50;5093125;28;20275;-53
2024/01/08 09:56:58;;;;;;;2.50;1.70;;;;;;;3.41;100.00;63282.31;5092858;28;20212;-52
2024/01/08 09:59:24;;;;;;;3.60;2.00;;;;;;;3.48;100.00;63286.34;5092929;28;20196;-53
2024/01/08 10:01:50;;;;;;;2.00;1.70;;;;;;;3.57;100.00;63291.16;5092669;28;20697;-53
2024/01/08 10:04:16;;;;;;;2.40;1.90;;;;;;;3.57;100.00;63296.13;5093124;28;20217;-55
2024/01/08 10:06:44;;;;;;;2.10;1.80;;;;;;;3.67;100.00;63307.00;5092834;28;20182;-53
2024/01/08 10:09:12;;;;;;;4.60;1.80;;;;;;;3.49;100.00;63287.44;5074633;28;20188;-54
2024/01/08 10:11:39;;;;;;;2.93;2.27;;;;;;;3.46;100.00;63284.72;5092823;28;20185;-53
2024/01/08 10:14:08;;;;;;;2.33;1.83;;;;;;;3.43;100.00;63281.47;5093085;28;20590;-55
2024/01/08 10:16:34;;;;;;;2.13;1.67;;;;;;;3.36;100.00;63276.34;5092706;28;20219;-53
2024/01/08 10:18:59;;;;;;;1.93;1.60;;;;;;;3.40;100.00;63278.19;5092808;28;20273;-54
2024/01/08 10:21:25;;;;;;;2.20;1.50;;;;;;;3.39;100.00;63277.13;5091680;28;20303;-56
2024/01/08 10:23:51;;;;;;;2.10;1.90;;;;;;;3.39;100.00;63277.66;5092277;28;20576;-54
2024/01/08 10:26:17;;;;;;;2.37;1.70;;;;;;;3.45;100.00;63285.59;5092635;28;20192;-56
2024/01/08 10:28:46;;;;;;;2.93;1.90;;;;;;;3.37;100.00;63277.44;5092923;28;20219;-54
2024/01/08 10:31:12;;;;;;;2.27;1.90;;;;;;;3.24;100.00;63261.38;5092360;28;20192;-54
2024/01/08 10:33:38;;;;;;;2.57;2.00;;;;;;;3.11;100.00;63247.25;5092560;28;20227;-57
2024/01/08 10:36:07;;;;;;;1.97;1.87;;;;;;;3.23;100.00;63257.78;5092553;28;20223;-59
2024/01/08 10:38:33;;;;;;;2.93;2.30;;;;;;;3.14;100.00;63247.47;5074164;28;20208;-54
2024/01/08 10:41:01;;;;;;;3.80;2.77;;;;;;;3.25;100.00;63262.44;5092448;28;20211;-54
2024/01/08 10:43:30;;;;;;;2.97;2.47;;;;;;;3.42;100.00;63275.41;5092123;28;20763;-54
2024/01/08 10:46:02;;;;;;;5.50;2.10;;;;;;;3.39;100.00;63277.13;5080670;22;20704;-55
2024/01/08 10:48:50;;;;;;;3.60;2.17;;;;;;;3.29;100.00;63266.78;5071799;28;20201;-56
2024/01/08 10:51:17;;;;;;;2.83;2.10;;;;;;;3.20;100.00;63257.03;5072021;28;20193;-54
2024/01/08 10:53:47;;;;;;;3.13;2.23;;;;;;;3.35;100.00;63273.31;5071882;28;20236;-54
2024/01/08 10:56:20;;;;;;;3.53;2.20;;;;;;;3.28;100.00;63265.16;5053832;28;20202;-54
2024/01/08 10:59:05;;;;;;;4.93;3.87;;;;;;;3.37;100.00;63277.97;5071822;28;20758;-56
2024/01/08 11:01:36;;;;;;;4.13;3.50;;;;;;;3.31;100.00;63271.44;5071699;28;20755;-55
2024/01/08 11:04:07;;;;;;;2.70;2.50;;;;;;;3.24;100.00;63261.38;5053745;28;20224;-54
2024/01/08 11:06:36;;;;;;;3.93;2.13;;;;;;;3.27;100.00;63264.63;5071578;28;20203;-58
2024/01/08 11:09:03;;;;;;;2.70;2.20;;;;;;;3.17;100.00;63253.22;5054287;28;20190;-53
2024/01/08 11:11:33;;;;;;;3.77;2.67;;;;;;;3.28;100.00;63268.19;5053563;28;20196;-54
2024/01/08 11:13:58;;;;;;;3.13;2.20;;;;;;;3.21;100.00;63255.09;5053572;28;20185;-53
2024/01/08 11:16:29;;;;;;;2.70;1.90;;;;;;;3.19;100.00;63255.41;5071607;28;20193;-54
2024/01/08 11:19:20;;;;;;;3.00;2.40;;;;;;;3.27;100.00;63264.09;5071355;28;20207;-56
2024/01/08 11:21:48;;;;;;;3.07;2.07;;;;;;;2.99;100.00;63234.22;5071586;28;20282;-53
2024/01/08 11:24:15;;;;;;;2.40;2.03;;;;;;;3.03;100.00;63235.53;5071366;28;20192;-55
2024/01/08 11:26:43;;;;;;;2.77;2.20;;;;;;;3.14;100.00;63250.50;5071320;28;20217;-54
2024/01/08 11:29:10;;;;;;;3.53;2.30;;;;;;;3.06;100.00;63243.75;5071124;28;20197;-55
2024/01/08 11:31:57;;;;;;;2.80;2.10;;;;;;;2.90;100.00;63224.44;5070929;28;20646;-54